Rechercher aéroport 
image banner adimage banner adimage banner ad
image banner ad

CER6 - Aklavik

Situé à , Canada

ICAO - CER6, IATA -

Données fournies par Airmate  

Information générale

Coordonnées: N68°13'21" W134°59'30"
Élévation : 7 feet MSL.
Variation magnétique : 21.6668° East
Voir autres Aéroports à Northwest Territories

Données opérationnelles

Special qualification required
Heure actuelle UTC:
Heure actuelle locale:
Météo à : CYKD - Aklavik ( 1 km )
METAR: CYKD 070000Z 13006KT 15SM FEW120 BKN180 BKN220 M12/M15 A2929 RMK AC1AC4CS2 LAST STFD OBS/NXT 071400Z SLP922
Voir NOTAMs / SUP AIP / TFR affectant cet aéroport [VIEW]
Fréquences de communication: [VIEW]

Pistes:

Identifiant RWYQFULongueur (ft)Largeur (ft)SurfaceLDA (ft)
W00WATER

Coordonnées de l'aéroport

Adresse: Canada

Vue satellite de CER6